createdAt,value
2023-03-29T00:02:54.081Z,474.00
2023-03-29T00:06:54.011Z,474.00
2023-03-29T00:10:54.111Z,472.00
2023-03-29T00:14:54.217Z,474.00
2023-03-29T00:18:54.347Z,479.00
2023-03-29T00:22:54.425Z,477.00
2023-03-29T00:26:54.486Z,472.00
2023-03-29T00:30:54.630Z,476.00
2023-03-29T00:34:54.688Z,479.00
2023-03-29T00:38:54.823Z,479.00
2023-03-29T00:42:54.945Z,475.00
2023-03-29T00:46:55.101Z,475.00
2023-03-29T00:50:55.789Z,475.00
2023-03-29T00:54:55.305Z,475.00
2023-03-29T00:58:55.441Z,473.00
2023-03-29T01:02:55.594Z,469.00
2023-03-29T01:06:55.680Z,477.00
2023-03-29T01:10:55.800Z,477.00
2023-03-29T01:14:55.927Z,472.00
2023-03-29T01:18:56.104Z,473.00
2023-03-29T01:22:56.205Z,474.00
2023-03-29T01:26:56.342Z,478.00
2023-03-29T01:30:56.512Z,480.00
2023-03-29T01:34:56.645Z,478.00
2023-03-29T01:38:56.801Z,478.00
2023-03-29T01:42:56.927Z,474.00
2023-03-29T01:46:57.094Z,474.00
2023-03-29T01:50:57.283Z,477.00
2023-03-29T01:54:57.401Z,475.00
2023-03-29T01:58:57.590Z,475.00
2023-03-29T02:02:57.914Z,475.00
2023-03-29T02:06:57.937Z,468.00
2023-03-29T02:10:58.122Z,469.00
2023-03-29T02:14:58.305Z,469.00
2023-03-29T02:18:58.455Z,471.00
2023-03-29T02:22:58.676Z,474.00
2023-03-29T02:26:58.858Z,471.00
2023-03-29T02:30:59.087Z,475.00
2023-03-29T02:34:59.209Z,480.00
2023-03-29T02:38:59.344Z,477.00
2023-03-29T02:42:59.572Z,473.00
2023-03-29T02:46:59.849Z,477.00
2023-03-29T02:51:00.131Z,478.00
2023-03-29T02:55:00.119Z,474.00
2023-03-29T02:59:00.331Z,476.00
2023-03-29T03:03:01.885Z,478.00
2023-03-29T03:07:00.815Z,480.00
2023-03-29T03:11:01.187Z,476.00
2023-03-29T03:15:01.117Z,476.00
2023-03-29T03:19:01.045Z,479.00
2023-03-29T03:23:01.022Z,479.00
2023-03-29T03:27:01.007Z,475.00
2023-03-29T03:31:01.072Z,475.00
2023-03-29T03:35:00.930Z,478.00
2023-03-29T03:39:00.860Z,475.00
2023-03-29T03:43:00.814Z,477.00
2023-03-29T03:47:00.774Z,472.00
2023-03-29T03:51:01.045Z,469.00
2023-03-29T03:55:00.733Z,468.00
2023-03-29T03:59:00.856Z,471.00
2023-03-29T04:03:01.220Z,469.00
2023-03-29T04:07:01.009Z,470.00
2023-03-29T04:11:01.201Z,470.00
2023-03-29T04:15:00.964Z,475.00
2023-03-29T04:19:00.941Z,476.00
2023-03-29T04:23:00.869Z,473.00
2023-03-29T04:27:00.806Z,475.00
2023-03-29T04:31:01.035Z,477.00
2023-03-29T04:35:00.760Z,475.00
2023-03-29T04:39:00.685Z,479.00
2023-03-29T04:43:00.932Z,476.00
2023-03-29T04:47:00.769Z,473.00
2023-03-29T04:51:01.031Z,473.00
2023-03-29T04:55:00.743Z,471.00
2023-03-29T04:59:00.714Z,474.00
2023-03-29T05:03:00.785Z,472.00
2023-03-29T05:07:00.624Z,470.00
2023-03-29T05:11:00.791Z,472.00
2023-03-29T05:15:00.525Z,474.00
2023-03-29T05:19:00.477Z,473.00
2023-03-29T05:23:00.608Z,470.00
2023-03-29T05:27:00.796Z,469.00
2023-03-29T05:31:01.571Z,474.00
2023-03-29T05:35:01.245Z,473.00
2023-03-29T05:39:01.420Z,475.00
2023-03-29T05:43:01.865Z,481.00
2023-03-29T05:47:01.861Z,606.00
2023-03-29T05:51:02.061Z,675.00
2023-03-29T05:55:01.975Z,794.00
2023-03-29T05:59:02.386Z,917.00
2023-03-29T06:03:13.620Z,1011.00
2023-03-29T06:07:03.384Z,1058.00
2023-03-29T06:11:04.532Z,1130.00
2023-03-29T06:15:01.994Z,1167.00
2023-03-29T06:19:01.984Z,1221.00
2023-03-29T06:23:01.919Z,1256.00
2023-03-29T06:27:01.889Z,1289.00
2023-03-29T06:31:02.266Z,1327.00
2023-03-29T06:35:01.795Z,1380.00
2023-03-29T06:39:01.765Z,1359.00
2023-03-29T06:43:01.746Z,1335.00
2023-03-29T06:47:01.891Z,1299.00
2023-03-29T06:51:01.893Z,1379.00
2023-03-29T06:55:01.897Z,1450.00
2023-03-29T06:59:01.585Z,1498.00
2023-03-29T07:03:02.026Z,1502.00
2023-03-29T07:07:01.738Z,1509.00
2023-03-29T07:11:02.035Z,1548.00
2023-03-29T07:15:01.909Z,1581.00
2023-03-29T07:19:01.577Z,1588.00
2023-03-29T07:23:01.903Z,1596.00
2023-03-29T07:27:08.642Z,1612.00
2023-03-29T07:31:02.196Z,1619.00
2023-03-29T07:35:01.939Z,1621.00
2023-03-29T07:39:01.945Z,1644.00
2023-03-29T07:43:01.463Z,1656.00
2023-03-29T07:47:01.916Z,1503.00
2023-03-29T07:51:01.687Z,1418.00
2023-03-29T07:55:01.398Z,1353.00
2023-03-29T07:59:01.336Z,1311.00
2023-03-29T08:03:01.401Z,1231.00
2023-03-29T08:07:01.266Z,1195.00
2023-03-29T08:11:01.419Z,1141.00
2023-03-29T08:15:01.225Z,1089.00
2023-03-29T08:19:01.320Z,1060.00
2023-03-29T08:23:01.543Z,1023.00
2023-03-29T08:27:01.692Z,992.00
2023-03-29T08:31:02.205Z,947.00
2023-03-29T08:35:02.091Z,911.00
2023-03-29T08:39:02.458Z,882.00
2023-03-29T08:43:02.966Z,857.00
2023-03-29T08:47:02.704Z,840.00
2023-03-29T08:51:03.004Z,823.00
2023-03-29T08:55:03.451Z,800.00
2023-03-29T08:59:03.293Z,783.00
2023-03-29T09:03:03.553Z,762.00
2023-03-29T09:07:03.972Z,749.00
2023-03-29T09:11:03.851Z,733.00
2023-03-29T09:15:03.603Z,721.00
2023-03-29T09:19:03.562Z,707.00
2023-03-29T09:23:03.545Z,702.00
2023-03-29T09:27:03.496Z,687.00
2023-03-29T09:31:03.860Z,684.00
2023-03-29T09:35:03.495Z,780.00
2023-03-29T09:39:03.457Z,944.00
2023-03-29T09:43:03.498Z,972.00
2023-03-29T09:47:03.311Z,947.00
2023-03-29T09:51:03.686Z,930.00
2023-03-29T09:55:03.300Z,899.00
2023-03-29T09:59:03.488Z,886.00
2023-03-29T10:03:03.662Z,863.00
2023-03-29T10:07:03.799Z,831.00
2023-03-29T10:11:04.333Z,810.00
2023-03-29T10:15:04.142Z,795.00
2023-03-29T10:19:04.293Z,767.00
2023-03-29T10:23:04.456Z,742.00
2023-03-29T10:27:04.638Z,725.00
2023-03-29T10:31:04.961Z,709.00
2023-03-29T10:35:05.017Z,695.00
2023-03-29T10:39:06.250Z,694.00
2023-03-29T10:43:05.145Z,845.00
2023-03-29T10:47:05.161Z,949.00
2023-03-29T10:51:05.310Z,1042.00
2023-03-29T10:55:05.222Z,1116.00
2023-03-29T10:59:05.229Z,1164.00
2023-03-29T11:03:05.479Z,1200.00
2023-03-29T11:07:05.338Z,1230.00
2023-03-29T11:11:05.422Z,1285.00
2023-03-29T11:15:05.233Z,1323.00
2023-03-29T11:19:05.192Z,1340.00
2023-03-29T11:23:05.167Z,1389.00
2023-03-29T11:27:05.156Z,1413.00
2023-03-29T11:31:05.794Z,1439.00
2023-03-29T11:35:05.086Z,1434.00
2023-03-29T11:39:05.056Z,1370.00
2023-03-29T11:43:04.995Z,1311.00
2023-03-29T11:47:05.213Z,1246.00
2023-03-29T11:51:05.130Z,1179.00
2023-03-29T11:55:05.093Z,1140.00
2023-03-29T11:59:05.101Z,1123.00
2023-03-29T12:03:05.136Z,1095.00
2023-03-29T12:07:05.086Z,1055.00
2023-03-29T12:11:05.264Z,1040.00
2023-03-29T12:15:05.205Z,995.00
2023-03-29T12:19:05.247Z,944.00
2023-03-29T12:23:05.138Z,941.00
2023-03-29T12:27:05.147Z,934.00
2023-03-29T12:31:05.362Z,894.00
2023-03-29T12:35:05.169Z,860.00
2023-03-29T12:39:05.149Z,836.00
2023-03-29T12:43:05.122Z,828.00
2023-03-29T12:47:05.137Z,814.00
2023-03-29T12:51:05.119Z,786.00
2023-03-29T12:55:05.152Z,783.00
2023-03-29T12:59:05.109Z,771.00
2023-03-29T13:03:05.165Z,742.00
2023-03-29T13:07:05.157Z,726.00
2023-03-29T13:11:05.245Z,731.00
2023-03-29T13:15:05.316Z,729.00
2023-03-29T13:19:05.338Z,722.00
2023-03-29T13:23:05.408Z,703.00
2023-03-29T13:27:05.501Z,685.00
2023-03-29T13:31:05.464Z,672.00
2023-03-29T13:35:05.465Z,657.00
2023-03-29T13:39:05.498Z,647.00
2023-03-29T13:43:05.392Z,635.00
2023-03-29T13:47:05.507Z,624.00
2023-03-29T13:51:05.413Z,611.00
2023-03-29T13:55:05.459Z,607.00
2023-03-29T13:59:05.402Z,597.00
2023-03-29T14:03:05.469Z,591.00
2023-03-29T14:07:05.377Z,582.00
2023-03-29T14:11:05.396Z,577.00
2023-03-29T14:15:05.401Z,573.00
2023-03-29T14:19:05.440Z,573.00
2023-03-29T14:23:05.421Z,566.00
2023-03-29T14:27:05.425Z,565.00
2023-03-29T14:31:05.427Z,557.00
2023-03-29T14:35:05.436Z,556.00
2023-03-29T14:39:05.394Z,551.00
2023-03-29T14:43:05.409Z,539.00
2023-03-29T14:47:05.453Z,533.00
2023-03-29T14:51:05.448Z,530.00
2023-03-29T14:55:05.520Z,524.00
2023-03-29T14:59:05.438Z,529.00
2023-03-29T15:03:05.573Z,521.00
2023-03-29T15:07:05.519Z,517.00
2023-03-29T15:11:05.572Z,518.00
2023-03-29T15:15:05.650Z,519.00
2023-03-29T15:19:05.663Z,517.00
2023-03-29T15:23:05.850Z,514.00
2023-03-29T15:27:05.682Z,508.00
2023-03-29T15:31:08.113Z,508.00
2023-03-29T15:35:05.622Z,506.00
2023-03-29T15:39:05.610Z,504.00
2023-03-29T15:43:05.560Z,500.00
2023-03-29T15:47:05.579Z,502.00
2023-03-29T15:51:06.830Z,501.00
2023-03-29T15:55:05.449Z,499.00
2023-03-29T15:59:05.394Z,501.00
2023-03-29T16:03:05.424Z,494.00
2023-03-29T16:07:05.344Z,491.00
2023-03-29T16:11:05.322Z,494.00
2023-03-29T16:15:05.254Z,491.00
2023-03-29T16:19:05.213Z,487.00
2023-03-29T16:23:05.184Z,489.00
2023-03-29T16:27:05.151Z,481.00
2023-03-29T16:31:05.110Z,482.00
2023-03-29T16:35:05.069Z,485.00
2023-03-29T16:39:05.044Z,484.00
2023-03-29T16:43:05.106Z,481.00
2023-03-29T16:47:05.135Z,481.00
2023-03-29T16:51:05.198Z,491.00
2023-03-29T16:55:05.212Z,490.00
2023-03-29T16:59:05.279Z,490.00
2023-03-29T17:03:05.457Z,484.00
2023-03-29T17:07:05.517Z,487.00
2023-03-29T17:11:05.528Z,484.00
2023-03-29T17:15:05.737Z,484.00
2023-03-29T17:19:05.636Z,483.00
2023-03-29T17:23:05.739Z,488.00
2023-03-29T17:27:05.856Z,487.00
2023-03-29T17:31:05.995Z,494.00
2023-03-29T17:35:06.036Z,496.00
2023-03-29T17:39:06.163Z,494.00
2023-03-29T17:43:06.226Z,494.00
2023-03-29T17:47:06.391Z,491.00
2023-03-29T17:51:06.504Z,487.00
2023-03-29T17:55:06.634Z,485.00
2023-03-29T17:59:06.745Z,489.00
2023-03-29T18:03:06.947Z,487.00
2023-03-29T18:07:07.061Z,487.00
2023-03-29T18:11:07.165Z,486.00
2023-03-29T18:15:07.309Z,488.00
2023-03-29T18:19:07.439Z,485.00
2023-03-29T18:23:07.681Z,486.00
2023-03-29T18:27:07.785Z,487.00
2023-03-29T18:31:07.925Z,491.00
2023-03-29T18:35:08.107Z,497.00
2023-03-29T18:39:08.276Z,492.00
2023-03-29T18:43:08.430Z,497.00
2023-03-29T18:47:08.599Z,491.00
2023-03-29T18:51:08.775Z,491.00
2023-03-29T18:55:08.937Z,493.00
2023-03-29T18:59:09.144Z,494.00
2023-03-29T19:03:09.520Z,497.00
2023-03-29T19:07:09.478Z,496.00
2023-03-29T19:11:09.638Z,496.00
2023-03-29T19:15:09.837Z,493.00
2023-03-29T19:19:10.011Z,494.00
2023-03-29T19:23:10.212Z,494.00
2023-03-29T19:27:12.570Z,498.00
2023-03-29T19:31:10.728Z,496.00
2023-03-29T19:35:10.819Z,494.00
2023-03-29T19:39:11.010Z,494.00
2023-03-29T19:43:11.219Z,497.00
2023-03-29T19:47:11.433Z,499.00
2023-03-29T19:51:11.624Z,500.00
2023-03-29T19:55:11.834Z,501.00
2023-03-29T19:59:12.103Z,499.00
2023-03-29T20:03:12.380Z,499.00
2023-03-29T20:07:12.537Z,504.00
2023-03-29T20:11:12.477Z,505.00
2023-03-29T20:15:12.463Z,503.00
2023-03-29T20:19:12.427Z,501.00
2023-03-29T20:23:12.353Z,497.00
2023-03-29T20:27:12.321Z,499.00
2023-03-29T20:31:13.217Z,500.00
2023-03-29T20:35:12.280Z,500.00
2023-03-29T20:39:12.269Z,504.00
2023-03-29T20:43:12.236Z,500.00
2023-03-29T20:47:12.305Z,496.00
2023-03-29T20:51:12.249Z,502.00
2023-03-29T20:55:12.218Z,502.00
2023-03-29T20:59:12.222Z,503.00
2023-03-29T21:03:12.231Z,499.00
2023-03-29T21:07:12.112Z,495.00
2023-03-29T21:11:12.100Z,496.00
2023-03-29T21:15:12.023Z,498.00
2023-03-29T21:19:12.012Z,504.00
2023-03-29T21:23:11.942Z,509.00
2023-03-29T21:27:12.132Z,506.00
2023-03-29T21:31:12.162Z,508.00
2023-03-29T21:35:12.046Z,509.00
2023-03-29T21:39:12.042Z,507.00
2023-03-29T21:43:12.012Z,504.00
2023-03-29T21:47:11.950Z,511.00
2023-03-29T21:51:11.924Z,510.00
2023-03-29T21:55:11.868Z,509.00
2023-03-29T21:59:11.841Z,510.00
2023-03-29T22:03:11.812Z,508.00
2023-03-29T22:07:11.783Z,508.00
2023-03-29T22:11:11.729Z,502.00
2023-03-29T22:15:11.694Z,504.00
2023-03-29T22:19:11.631Z,506.00
2023-03-29T22:23:11.607Z,510.00
2023-03-29T22:27:11.606Z,505.00
2023-03-29T22:31:11.532Z,499.00
2023-03-29T22:35:11.497Z,498.00
2023-03-29T22:39:11.470Z,500.00
2023-03-29T22:43:11.435Z,504.00
2023-03-29T22:47:11.401Z,500.00
2023-03-29T22:51:11.558Z,498.00
2023-03-29T22:55:11.581Z,500.00
2023-03-29T22:59:11.480Z,506.00
2023-03-29T23:03:11.488Z,509.00
2023-03-29T23:07:11.409Z,501.00
2023-03-29T23:11:11.384Z,503.00
2023-03-29T23:15:11.353Z,501.00
2023-03-29T23:19:11.324Z,503.00
2023-03-29T23:23:12.248Z,502.00
2023-03-29T23:27:11.241Z,503.00
2023-03-29T23:31:11.223Z,506.00
2023-03-29T23:35:11.249Z,503.00
2023-03-29T23:39:11.441Z,499.00
2023-03-29T23:43:11.627Z,500.00
2023-03-29T23:47:11.825Z,500.00
2023-03-29T23:51:11.822Z,495.00
2023-03-29T23:55:11.758Z,495.00
2023-03-29T23:59:11.689Z,499.00
